Time;durP1;ratioP1;P1;durP2;ratioP2;P2;SDS_P1;SDS_P2;PMS_P1;PMS_P2;Temp;Humidity;BMP_temperature;BMP_pressure;BME280_temperature;BME280_humidity;BME280_pressure;Samples;Min_cycle;Max_cycle;Signal;HPM_P1;HPM_P2
2022/06/29 00:00:20;;;;;;;2.70;2.50;;;23.10;83.50;;;23.51;50.61;98529.84;4980821;28;113913;-89
2022/06/29 00:02:47;;;;;;;2.50;2.30;;;23.00;83.60;;;23.51;50.56;98526.22;4972047;28;112561;-90
2022/06/29 00:05:22;;;;;;;3.70;2.50;;;23.00;83.60;;;23.50;50.55;98521.78;4980575;28;123892;-90
2022/06/29 00:07:51;;;;;;;2.90;2.67;;;22.10;83.00;;;23.48;50.84;98518.56;4973125;28;123752;-89
2022/06/29 00:10:18;;;;;;;3.40;2.80;;;23.00;84.00;;;23.47;50.84;98514.13;4969825;28;115367;-91
2022/06/29 00:12:47;;;;;;;2.83;2.43;;;22.90;84.10;;;23.45;50.81;98511.72;4974053;28;114661;-90
2022/06/29 00:15:16;;;;;;;2.53;2.33;;;22.90;84.10;;;23.44;50.60;98503.69;4968389;28;124500;-90
2022/06/29 00:17:43;;;;;;;3.03;2.83;;;22.90;84.30;;;23.43;50.98;98510.50;4976840;28;123007;-91
2022/06/29 00:20:10;;;;;;;2.50;2.30;;;22.90;84.30;;;23.41;50.98;98510.13;4969621;28;114377;-91
2022/06/29 00:22:38;;;;;;;3.60;2.63;;;22.90;84.40;;;23.40;51.02;98503.69;4970584;28;114053;-89
2022/06/29 00:25:05;;;;;;;2.60;2.40;;;22.90;84.60;;;23.38;50.89;98503.28;4972196;28;124570;-90
2022/06/29 00:27:32;;;;;;;2.57;2.23;;;22.80;84.60;;;23.36;51.07;98497.25;4980446;28;123531;-90
2022/06/29 00:29:59;;;;;;;2.97;2.67;;;22.80;84.70;;;23.34;51.18;98496.84;4972660;28;114360;-91
2022/06/29 00:32:26;;;;;;;2.63;2.43;;;22.80;84.80;;;23.32;51.29;98494.44;4974642;28;114650;-90
2022/06/29 00:34:52;;;;;;;2.73;2.53;;;22.80;85.00;;;23.30;51.29;98482.75;4970614;28;123248;-90
2022/06/29 00:37:19;;;;;;;3.10;2.70;;;22.70;85.00;;;23.29;51.23;98478.34;4972538;28;123757;-90
2022/06/29 00:39:45;;;;;;;2.80;2.60;;;22.70;85.10;;;23.28;51.45;98479.53;4972335;28;114323;-89
2022/06/29 00:42:12;;;;;;;2.50;2.30;;;22.70;85.70;;;23.27;51.40;98477.94;4970992;28;114083;-90
2022/06/29 00:44:38;;;;;;;2.80;2.60;;;22.70;85.40;;;23.26;51.67;98481.16;4976387;28;124040;-90
2022/06/29 00:47:06;;;;;;;2.53;2.33;;;22.70;85.50;;;23.25;51.56;98477.53;4977549;28;122998;-91
2022/06/29 00:49:36;;;;;;;2.57;2.20;;;22.70;85.60;;;23.23;51.78;98471.50;4978264;28;114902;-90
2022/06/29 00:52:12;;;;;;;2.60;2.40;;;22.70;85.80;;;23.21;51.70;98476.72;4972591;28;114527;-90
2022/06/29 00:55:00;;;;;;;2.97;2.70;;;22.70;85.80;;;23.18;51.38;98469.06;4955955;28;123241;-90
2022/06/29 00:57:29;;;;;;;2.60;2.40;;;22.60;85.80;;;23.16;51.77;98471.53;4971439;28;124437;-89
2022/06/29 00:59:59;;;;;;;2.63;2.43;;;22.60;85.90;;;23.14;51.48;98462.66;4968011;28;115219;-91
2022/06/29 01:02:32;;;;;;;2.93;2.73;;;22.60;86.00;;;23.13;51.69;98467.50;4969561;28;114910;-92
2022/06/29 01:04:59;;;;;;;2.83;2.63;;;22.60;86.10;;;23.12;51.91;98470.72;4975396;28;123214;-92
2022/06/29 01:07:29;;;;;;;2.63;2.43;;;22.60;86.20;;;23.09;52.11;98463.88;4972265;28;123856;-92
2022/06/29 01:09:57;;;;;;;2.50;2.30;;;22.50;86.20;;;23.09;51.93;98466.69;4972475;28;114460;-91
2022/06/29 01:12:24;;;;;;;3.63;2.70;;;22.50;86.20;;;23.07;52.19;98468.28;4996304;28;113194;-91
2022/06/29 01:14:53;;;;;;;2.50;2.30;;;22.50;86.40;;;23.05;51.88;98465.91;4976854;28;122312;-91
2022/06/29 01:17:22;;;;;;;3.20;2.80;;;22.50;86.40;;;23.01;51.99;98467.91;4973018;28;122956;-90
2022/06/29 01:19:49;;;;;;;2.33;2.07;;;22.40;86.40;;;22.99;52.19;98472.31;4980676;28;114141;-89
2022/06/29 01:22:19;;;;;;;2.97;2.50;;;22.40;86.50;;;22.94;52.44;98477.16;4968936;28;113050;-88
2022/06/29 01:24:47;;;;;;;3.03;2.73;;;22.40;86.60;;;22.93;52.37;98463.44;4989143;28;124529;-89
2022/06/29 01:27:16;;;;;;;2.30;2.10;;;22.40;87.40;;;22.91;52.35;98466.66;4987340;28;123831;-91
2022/06/29 01:29:43;;;;;;;2.43;2.23;;;22.40;86.80;;;22.92;52.58;98464.66;4984221;28;114378;-90
2022/06/29 01:32:28;;;;;;;5.43;2.60;;;22.40;87.00;;;22.89;52.52;98471.91;4984166;28;113986;-90
2022/06/29 01:34:57;;;;;;;2.73;2.30;;;22.40;87.10;;;22.86;52.48;98469.91;4954511;28;123421;-89
2022/06/29 01:37:25;;;;;;;2.40;2.20;;;22.30;87.10;;;22.85;52.43;98473.91;4990086;28;124067;-88
2022/06/29 01:39:52;;;;;;;3.17;2.57;;;22.30;87.20;;;22.84;52.81;98477.94;5004942;28;113438;-89
2022/06/29 01:42:19;;;;;;;2.90;2.60;;;22.30;87.20;;;22.84;52.61;98477.16;5006766;28;113206;-91
2022/06/29 01:44:45;;;;;;;2.50;2.30;;;22.30;87.40;;;22.83;52.49;98490.41;5007685;28;123313;-88
2022/06/29 01:47:12;;;;;;;2.70;2.50;;;22.30;87.50;;;22.83;52.95;98487.59;4978374;28;125027;-89
2022/06/29 01:49:38;;;;;;;2.70;2.50;;;22.30;87.60;;;22.83;52.79;98492.44;4976670;28;115666;-89
2022/06/29 01:52:05;;;;;;;21.53;3.47;;;22.30;87.70;;;22.81;52.80;98495.66;4967393;28;114260;-89
2022/06/29 01:54:32;;;;;;;2.70;2.50;;;22.20;87.60;;;22.81;52.97;98490.03;4983611;28;124346;-91
2022/06/29 01:56:58;;;;;;;3.20;2.70;;;22.30;87.80;;;22.78;52.99;98490.81;4982501;28;123621;-89
2022/06/29 01:59:25;;;;;;;2.77;2.57;;;22.20;87.80;;;22.77;52.98;98486.38;4975800;28;114367;-89
2022/06/29 02:01:51;;;;;;;2.40;2.17;;;22.20;87.90;;;22.77;53.10;98482.78;4982762;28;114341;-89
2022/06/29 02:04:18;;;;;;;2.40;2.13;;;22.20;88.00;;;22.76;52.78;98487.59;4983881;28;123499;-89
2022/06/29 02:06:47;;;;;;;2.63;2.43;;;22.20;88.20;;;22.77;53.02;98474.31;4988260;28;124068;-90
2022/06/29 02:09:13;;;;;;;2.60;2.40;;;22.20;88.20;;;22.76;53.09;98469.91;4980814;28;114363;-90
2022/06/29 02:11:40;;;;;;;2.50;2.30;;;22.20;88.30;;;22.74;53.22;98475.94;4980252;28;114001;-90
2022/06/29 02:14:07;;;;;;;2.57;2.30;;;22.20;88.30;;;22.71;53.39;98473.94;4982191;28;124201;-90
2022/06/29 02:16:33;;;;;;;2.70;2.33;;;22.20;88.40;;;22.68;52.98;98469.91;4969035;28;123649;-90
2022/06/29 02:19:00;;;;;;;2.77;2.23;;;22.10;88.40;;;22.67;53.57;98482.34;4978248;28;114106;-92
2022/06/29 02:21:27;;;;;;;2.90;2.57;;;22.10;88.50;;;22.66;53.16;98472.31;4970444;28;114203;-90
2022/06/29 02:23:54;;;;;;;2.40;2.20;;;22.10;88.50;;;22.63;53.27;98472.31;4976994;28;124090;-90
2022/06/29 02:26:20;;;;;;;3.33;2.63;;;22.10;88.60;;;22.62;53.22;98459.41;4972079;28;124258;-90
2022/06/29 02:28:47;;;;;;;2.70;2.47;;;22.10;88.70;;;22.60;53.37;98454.22;4972689;28;114457;-90
2022/06/29 02:37:00;;;;;;;3.13;2.83;;;22.00;88.90;;;22.53;53.79;98439.31;4976017;28;124324;-89
2022/06/29 02:39:26;;;;;;;2.70;2.50;;;22.00;89.00;;;22.52;53.68;98441.34;4974269;28;115258;-90
2022/06/29 02:41:53;;;;;;;3.73;3.00;;;22.00;89.10;;;22.49;53.79;98440.13;4980600;28;114912;-91
2022/06/29 02:44:20;;;;;;;2.63;2.43;;;21.90;89.00;;;22.46;53.49;98440.09;4972738;28;123946;-90
2022/06/29 02:46:46;;;;;;;3.43;3.00;;;21.90;89.00;;;22.42;53.64;98440.09;4983513;28;123889;-90
2022/06/29 02:49:12;;;;;;;2.80;2.60;;;21.90;89.20;;;22.40;53.98;98441.72;4977908;28;114362;-91
2022/06/29 02:51:39;;;;;;;2.50;2.17;;;21.80;89.10;;;22.39;53.72;98440.91;4991838;28;113809;-90
2022/06/29 02:54:06;;;;;;;4.73;3.10;;;21.90;89.30;;;22.38;54.03;98444.94;4977661;28;123443;-91
2022/06/29 02:56:32;;;;;;;3.37;2.60;;;21.80;89.30;;;22.38;53.54;98433.69;4981873;28;124320;-90
2022/06/29 02:58:59;;;;;;;2.50;2.30;;;21.80;89.40;;;22.36;53.92;98430.47;4976191;28;114333;-92
2022/06/29 03:01:25;;;;;;;2.90;2.57;;;21.80;89.40;;;22.35;53.90;98434.47;4984816;28;114089;-91
2022/06/29 03:03:52;;;;;;;2.87;2.67;;;21.80;89.50;;;22.33;53.87;98442.53;4979021;28;123455;-90
2022/06/29 03:06:18;;;;;;;2.50;2.30;;;21.80;89.60;;;22.33;54.06;98442.53;4979636;28;124231;-90
2022/06/29 03:08:45;;;;;;;2.53;2.33;;;21.80;89.60;;;22.32;54.18;98443.72;4974513;28;114286;-91
2022/06/29 03:11:11;;;;;;;2.90;2.60;;;21.80;89.70;;;22.31;54.02;98436.47;4991737;28;111953;-91
2022/06/29 03:13:38;;;;;;;2.63;2.43;;;21.70;89.70;;;22.30;53.97;98437.69;4977353;28;124826;-92
2022/06/29 03:16:04;;;;;;;3.60;2.40;;;21.70;89.80;;;22.28;54.11;98440.09;4981654;28;123812;-91
2022/06/29 03:18:31;;;;;;;3.13;2.57;;;21.70;89.80;;;22.26;54.43;98436.88;4988811;28;114301;-90
2022/06/29 03:20:57;;;;;;;2.70;2.50;;;21.70;89.90;;;22.25;54.35;98435.28;4982447;28;114025;-91
2022/06/29 03:23:24;;;;;;;2.67;2.47;;;21.70;90.00;;;22.23;54.17;98432.84;4986964;28;124056;-91
2022/06/29 03:25:50;;;;;;;3.70;2.30;;;21.70;90.00;;;22.22;54.21;98436.88;4975705;28;124493;-90
2022/06/29 03:28:17;;;;;;;3.00;2.70;;;21.60;90.00;;;22.22;54.46;98441.72;4974222;28;115697;-90
2022/06/29 03:30:44;;;;;;;2.67;2.47;;;21.60;90.00;;;22.20;54.45;98436.47;4973798;28;114775;-90
2022/06/29 03:33:10;;;;;;;2.70;2.40;;;21.60;90.10;;;22.19;54.41;98443.31;4985175;28;123097;-90
2022/06/29 03:35:37;;;;;;;2.93;2.67;;;21.60;90.10;;;22.19;54.44;98434.88;4988026;28;122834;-91
2022/06/29 03:38:03;;;;;;;3.13;2.80;;;21.60;90.10;;;22.18;54.72;98429.59;4972733;28;116213;-91
2022/06/29 03:40:30;;;;;;;2.80;2.60;;;21.60;90.20;;;22.18;54.29;98429.59;4973257;28;114388;-90
2022/06/29 03:42:57;;;;;;;2.90;2.50;;;21.60;90.20;;;22.16;54.77;98423.56;4975063;28;124563;-90
2022/06/29 03:45:23;;;;;;;2.53;2.33;;;21.60;90.20;;;22.16;54.88;98421.53;4981074;28;124329;-91
2022/06/29 03:47:50;;;;;;;2.73;2.53;;;21.60;90.30;;;22.14;54.57;98423.97;4991686;28;113900;-91
2022/06/29 03:50:17;;;;;;;3.90;2.97;;;21.60;90.30;;;22.13;54.77;98427.16;4976854;28;113524;-90
2022/06/29 03:52:44;;;;;;;3.27;2.97;;;21.60;90.30;;;22.12;54.52;98425.56;4974761;28;123879;-90
2022/06/29 03:55:10;;;;;;;3.10;2.90;;;21.50;90.30;;;22.11;54.70;98421.13;4978620;28;123773;-90
2022/06/29 03:57:38;;;;;;;3.03;2.73;;;21.50;90.30;;;22.10;54.69;98419.53;4971243;28;114486;-90
2022/06/29 04:00:05;;;;;;;3.47;2.50;;;21.50;90.40;;;22.09;54.69;98430.00;4983896;28;113291;-90
2022/06/29 04:02:32;;;;;;;2.90;2.53;;;21.50;90.40;;;22.08;54.76;98430.38;4983755;28;123777;-90
2022/06/29 04:04:58;;;;;;;2.67;2.47;;;21.50;90.40;;;22.06;54.84;98425.16;4984990;28;123639;-90
2022/06/29 04:07:25;;;;;;;3.87;3.03;;;21.50;90.50;;;22.06;54.85;98439.22;4981564;28;113630;-90
2022/06/29 04:09:59;;;;;;;3.00;2.63;;;21.50;90.50;;;22.04;55.04;98425.56;4982961;28;114096;-91
2022/06/29 04:12:31;;;;;;;3.47;2.97;;;21.50;90.50;;;22.05;55.34;98429.16;4983176;28;123664;-89
2022/06/29 04:14:58;;;;;;;3.63;2.57;;;21.50;90.60;;;22.06;55.41;98428.78;4983619;28;123826;-90
2022/06/29 04:17:25;;;;;;;2.63;2.30;;;21.50;90.70;;;22.09;55.40;98443.25;4986654;28;115453;-90
2022/06/29 04:19:52;;;;;;;2.83;2.63;;;21.50;90.70;;;22.10;55.19;98433.59;4991744;28;114455;-90
2022/06/29 04:22:20;;;;;;;3.20;2.90;;;21.50;90.70;;;22.12;55.40;98429.19;4993860;28;124915;-90
2022/06/29 04:24:47;;;;;;;3.07;2.77;;;21.50;90.80;;;22.14;55.21;98428.78;4992992;28;123420;-90
2022/06/29 04:27:14;;;;;;;2.60;2.40;;;21.50;90.80;;;22.15;55.23;98430.41;4984157;28;114598;-90
2022/06/29 04:29:40;;;;;;;2.97;2.77;;;21.50;90.80;;;22.18;55.24;98423.97;4981434;28;114652;-91
2022/06/29 04:32:08;;;;;;;2.60;2.40;;;21.50;90.80;;;22.19;55.21;98425.59;4983890;28;124064;-90
2022/06/29 04:34:35;;;;;;;3.70;2.93;;;21.50;91.20;;;22.22;55.01;98428.44;4987778;28;123258;-90
2022/06/29 04:37:06;;;;;;;3.00;2.70;;;21.60;90.90;;;22.24;55.27;98425.19;4983035;28;114032;-91
2022/06/29 04:39:35;;;;;;;3.57;2.70;;;21.60;90.90;;;22.21;55.20;98435.25;4989785;28;114018;-89
2022/06/29 04:42:01;;;;;;;3.60;3.20;;;21.60;90.90;;;22.22;55.05;98434.06;5000089;28;122172;-89
2022/06/29 04:44:29;;;;;;;3.23;3.00;;;21.60;90.90;;;22.24;54.91;98445.72;5017442;28;121927;-89
2022/06/29 04:46:56;;;;;;;2.90;2.70;;;21.60;90.90;;;22.25;55.03;98432.47;4999693;28;113946;-88
2022/06/29 04:49:23;;;;;;;3.70;2.67;;;21.60;90.90;;;22.27;54.90;98433.69;5001279;28;111848;-90
2022/06/29 04:51:51;;;;;;;3.40;3.07;;;21.60;90.90;;;22.28;55.24;98437.28;4989041;28;124011;-89
2022/06/29 04:54:18;;;;;;;3.43;2.57;;;21.70;90.90;;;22.29;55.00;98436.06;4996962;28;123505;-91
2022/06/29 04:56:44;;;;;;;2.90;2.60;;;21.70;90.90;;;22.31;55.38;98436.47;4986633;28;112812;-90
2022/06/29 04:59:11;;;;;;;5.10;2.80;;;21.70;91.00;;;22.34;55.04;98441.31;4991691;28;113934;-89
2022/06/29 05:01:37;;;;;;;5.50;3.30;;;21.70;91.00;;;22.35;55.02;98434.47;4988520;28;124545;-90
2022/06/29 05:04:04;;;;;;;2.90;2.70;;;21.70;91.00;;;22.37;55.40;98432.06;4981211;28;123269;-89
2022/06/29 05:06:31;;;;;;;3.17;2.87;;;21.70;91.10;;;22.39;55.35;98434.47;4989023;28;114482;-90
2022/06/29 05:08:57;;;;;;;4.57;3.30;;;21.80;91.10;;;22.41;55.09;98437.72;4987488;28;114895;-90
2022/06/29 05:11:25;;;;;;;3.47;3.17;;;21.80;91.20;;;22.42;55.40;98437.28;4976151;28;124635;-90
2022/06/29 05:13:52;;;;;;;4.03;3.37;;;21.80;91.20;;;22.43;55.65;98438.94;4981917;28;123945;-90
2022/06/29 05:16:19;;;;;;;4.53;3.47;;;21.80;91.20;;;22.46;55.43;98428.84;4983288;28;114436;-90
2022/06/29 05:18:47;;;;;;;3.07;2.77;;;21.80;91.20;;;22.48;55.31;98438.50;4987453;28;113498;-91
2022/06/29 05:21:14;;;;;;;2.87;2.60;;;21.80;91.30;;;22.52;55.57;98448.97;4977226;28;123220;-90
2022/06/29 05:23:41;;;;;;;6.27;4.10;;;21.90;91.30;;;22.54;55.72;98449.38;4979612;28;123090;-89
2022/06/29 05:26:07;;;;;;;3.83;3.33;;;21.90;91.40;;;22.56;55.55;98439.31;4987079;28;114450;-89
2022/06/29 05:28:35;;;;;;;4.43;3.23;;;21.90;91.40;;;22.59;55.58;98443.34;4981418;28;114512;-90
2022/06/29 05:31:01;;;;;;;4.33;3.67;;;21.90;91.40;;;22.62;55.36;98442.53;4980209;28;123617;-90
2022/06/29 05:33:36;;;;;;;3.03;2.80;;;21.90;91.40;;;22.67;55.54;98439.31;4981554;28;123501;-90
2022/06/29 05:36:07;;;;;;;3.97;3.53;;;21.90;91.50;;;22.70;55.73;98439.34;4977599;28;113093;-92
2022/06/29 05:38:36;;;;;;;3.90;3.50;;;22.00;91.50;;;22.77;55.45;98438.50;4979709;28;113047;-92
2022/06/29 05:41:04;;;;;;;3.27;2.97;;;22.10;91.60;;;22.79;55.06;98443.75;4989760;28;122482;-92
2022/06/29 05:43:31;;;;;;;3.57;3.27;;;22.10;91.40;;;22.77;55.17;98444.13;4990987;28;123592;-90
2022/06/29 05:45:59;;;;;;;3.23;2.93;;;22.10;91.30;;;22.74;55.07;98444.94;4973005;28;113725;-90
2022/06/29 05:48:25;;;;;;;5.43;3.83;;;22.10;91.30;;;22.74;54.93;98439.31;4991892;28;113340;-90
2022/06/29 05:50:52;;;;;;;3.30;2.80;;;22.10;91.20;;;22.75;55.41;98448.56;4986130;28;124178;-91
2022/06/29 05:53:18;;;;;;;12.70;4.17;;;22.10;91.30;;;22.78;55.41;98444.94;4979778;28;123779;-90
2022/06/29 05:55:46;;;;;;;6.77;3.70;;;22.10;91.30;;;22.83;55.33;98438.91;4980859;28;115116;-90
2022/06/29 05:58:18;;;;;;;4.30;3.60;;;22.20;91.40;;;22.85;55.10;98442.94;4979850;28;114957;-91
2022/06/29 06:00:45;;;;;;;6.60;3.30;;;22.20;91.40;;;22.92;55.46;98451.38;4985671;28;123019;-88
2022/06/29 06:03:12;;;;;;;4.17;3.73;;;22.30;91.40;;;23.00;55.04;98446.59;4983801;28;123845;-88
2022/06/29 06:05:39;;;;;;;3.47;3.17;;;22.30;91.40;;;23.08;55.16;98441.75;4988138;28;113690;-89
2022/06/29 06:08:06;;;;;;;4.00;3.47;;;22.30;91.40;;;23.13;55.03;98438.47;4982382;28;113457;-88
2022/06/29 06:10:32;;;;;;;4.17;3.20;;;22.40;91.40;;;23.19;55.09;98431.25;4979502;28;124004;-89
2022/06/29 06:12:59;;;;;;;6.73;3.20;;;22.50;91.40;;;23.25;54.79;98435.25;4979143;28;123945;-88
2022/06/29 06:15:25;;;;;;;12.23;4.57;;;22.50;91.30;;;23.30;54.78;98437.66;4991938;28;113931;-89
2022/06/29 06:17:51;;;;;;;5.63;4.23;;;22.60;91.30;;;23.30;54.45;98442.50;4989490;28;114474;-88
2022/06/29 06:20:19;;;;;;;4.50;4.10;;;22.60;91.20;;;23.32;54.67;98440.06;4986725;28;124092;-89
2022/06/29 06:22:45;;;;;;;5.50;4.53;;;22.60;91.10;;;23.36;54.67;98444.47;4991436;28;123680;-89
2022/06/29 06:25:12;;;;;;;4.37;3.70;;;22.70;91.20;;;23.40;54.31;98441.66;4990803;28;113431;-88
2022/06/29 06:27:39;;;;;;;9.10;4.77;;;22.70;91.10;;;23.46;54.48;98442.84;4990267;28;114558;-89
2022/06/29 06:30:07;;;;;;;5.40;4.40;;;22.80;91.10;;;23.50;54.22;98437.97;4992783;28;126742;-87
2022/06/29 06:32:33;;;;;;;4.80;4.23;;;22.80;91.10;;;23.52;54.42;98437.59;4994587;28;122464;-89
2022/06/29 06:35:00;;;;;;;3.90;3.27;;;22.90;91.00;;;23.58;54.17;98431.09;4982002;28;114840;-87
2022/06/29 06:37:26;;;;;;;5.27;4.23;;;22.90;91.00;;;23.68;53.98;98432.28;4994258;28;113969;-86
2022/06/29 06:42:38;;;;;;;4.50;3.70;;;23.10;90.90;;;23.81;53.71;98433.47;4996548;28;124325;-89
2022/06/29 06:45:05;;;;;;;3.73;3.43;;;23.10;90.80;;;23.90;53.60;98427.38;4994712;28;116080;-89
2022/06/29 06:47:32;;;;;;;4.67;3.60;;;23.20;90.70;;;23.99;53.28;98426.91;4996311;28;114464;-90
2022/06/29 06:49:58;;;;;;;4.57;4.00;;;23.30;90.70;;;24.07;53.04;98422.81;4987846;28;126005;-90
2022/06/29 06:52:25;;;;;;;3.53;3.23;;;23.40;90.60;;;24.15;52.98;98430.06;5005894;28;123648;-90
2022/06/29 06:54:53;;;;;;;10.90;3.97;;;23.50;90.70;;;24.25;52.82;98420.69;4992645;28;114413;-88
2022/06/29 06:57:19;;;;;;;5.63;3.97;;;23.50;90.50;;;24.31;52.76;98423.88;4993877;28;114351;-91
2022/06/29 06:59:46;;;;;;;6.07;3.60;;;23.60;90.50;;;24.37;52.53;98415.78;4998266;28;123507;-93
2022/06/29 07:02:12;;;;;;;5.57;3.47;;;23.70;90.40;;;24.44;52.70;98427.06;4989906;28;125720;-87
2022/06/29 07:04:58;;;;;;;5.53;4.80;;;23.70;90.60;;;24.51;52.64;98437.50;4998191;28;113317;-90
2022/06/29 07:07:25;;;;;;;7.97;4.10;;;23.80;90.30;;;24.59;52.34;98434.19;4985336;28;116558;-90
2022/06/29 07:09:51;;;;;;;3.63;3.33;;;23.90;90.30;;;24.68;52.34;98443.00;4996930;28;123239;-89
2022/06/29 07:12:18;;;;;;;5.10;3.80;;;24.00;90.20;;;24.71;52.21;98441.34;4996509;28;122988;-89
2022/06/29 07:14:45;;;;;;;5.07;4.00;;;24.00;90.10;;;24.75;52.04;98435.69;4985497;28;113454;-91
2022/06/29 07:17:12;;;;;;;4.73;3.40;;;24.00;90.00;;;24.80;51.96;98440.91;5004769;28;112014;-90
2022/06/29 07:19:38;;;;;;;6.40;4.33;;;24.10;90.00;;;24.85;51.62;98431.94;4999880;28;124131;-90
2022/06/29 07:22:05;;;;;;;4.53;3.70;;;24.20;90.00;;;24.91;51.98;98433.91;4989080;28;124287;-89
2022/06/29 07:24:32;;;;;;;4.43;4.00;;;24.20;89.80;;;24.98;51.80;98433.03;4987083;28;113432;-92
2022/06/29 07:26:59;;;;;;;5.23;3.80;;;24.30;89.80;;;25.05;51.48;98429.34;4979216;28;113913;-89
2022/06/29 07:29:25;;;;;;;5.20;3.80;;;24.40;89.50;;;25.05;51.00;98427.31;4985722;28;124214;-89
2022/06/29 07:31:52;;;;;;;4.47;4.07;;;24.40;89.30;;;25.08;51.13;98432.13;4992392;28;123679;-88
2022/06/29 07:34:19;;;;;;;5.73;3.80;;;24.40;89.20;;;25.13;51.58;98437.34;4984035;28;115623;-88
2022/06/29 07:36:46;;;;;;;5.10;3.73;;;24.50;89.30;;;25.21;51.31;98426.00;4989599;28;115128;-91
2022/06/29 07:39:12;;;;;;;5.10;3.37;;;24.50;89.10;;;25.25;51.26;98429.56;4978545;28;123690;-90
2022/06/29 07:41:41;;;;;;;4.83;3.70;;;24.50;89.00;;;25.30;50.88;98434.78;4981015;28;123329;-92
2022/06/29 07:44:07;;;;;;;6.00;4.27;;;24.60;88.90;;;25.35;51.00;98431.47;4984767;28;114332;-93
2022/06/29 07:46:34;;;;;;;4.13;3.70;;;24.70;88.80;;;25.37;50.75;98433.91;4994890;28;114798;-90
2022/06/29 07:49:01;;;;;;;4.90;3.67;;;24.70;88.50;;;25.42;50.94;98437.06;4984827;28;124399;-92
2022/06/29 07:51:27;;;;;;;3.60;3.30;;;24.80;88.60;;;25.47;50.93;98430.94;4984392;28;124052;-93
2022/06/29 07:53:54;;;;;;;6.93;3.90;;;24.80;88.50;;;25.54;50.83;98422.38;4989301;28;115016;-92
2022/06/29 07:56:20;;;;;;;3.77;3.40;;;24.90;88.50;;;25.60;50.60;98428.34;4985164;28;113285;-92
2022/06/29 07:58:47;;;;;;;3.83;3.43;;;24.90;88.40;;;25.68;50.25;98426.25;4962618;28;124995;-89
2022/06/29 08:01:13;;;;;;;3.60;3.13;;;25.00;88.30;;;25.75;50.65;98426.16;4976955;28;123137;-88
2022/06/29 08:03:40;;;;;;;4.37;3.20;;;25.10;88.30;;;25.81;50.18;98430.13;4957953;28;113908;-90
2022/06/29 08:06:06;;;;;;;4.13;3.70;;;25.50;88.40;;;25.88;50.25;98430.06;4970598;28;114610;-89
2022/06/29 08:08:33;;;;;;;3.93;3.50;;;25.20;87.80;;;25.94;49.75;98425.53;4960289;28;124045;-89
2022/06/29 08:10:59;;;;;;;6.90;3.90;;;25.30;87.80;;;26.01;49.89;98427.47;4958463;28;123763;-89
2022/06/29 08:13:27;;;;;;;7.60;4.20;;;25.30;87.30;;;26.04;49.08;98420.94;4990090;28;113388;-91
2022/06/29 08:15:53;;;;;;;7.60;3.80;;;25.40;87.00;;;26.05;49.38;98421.75;4969679;28;113972;-89
2022/06/29 08:18:22;;;;;;;3.47;3.17;;;25.30;86.70;;;26.07;49.56;98408.78;4981706;28;123790;-90
2022/06/29 08:20:49;;;;;;;4.63;4.03;;;25.40;86.70;;;26.10;48.86;98422.06;4991943;28;122976;-88
2022/06/29 08:23:20;;;;;;;3.83;3.07;;;25.40;86.30;;;26.14;48.75;98422.00;5000243;28;114857;-90
2022/06/29 08:25:46;;;;;;;3.93;3.57;;;25.50;86.40;;;26.20;48.60;98417.50;4987681;28;114597;-91
2022/06/29 08:28:13;;;;;;;7.47;3.50;;;25.50;86.10;;;26.25;48.76;98407.69;4989827;28;122418;-88
2022/06/29 08:30:39;;;;;;;4.00;3.33;;;25.60;85.90;;;26.29;48.87;98408.44;4979352;28;124626;-87
2022/06/29 08:33:06;;;;;;;3.50;3.20;;;25.60;85.80;;;26.31;48.31;98412.47;4988575;28;114837;-89
2022/06/29 08:35:34;;;;;;;4.70;3.40;;;25.70;85.50;;;26.35;48.51;98412.38;4981754;28;113597;-91
2022/06/29 08:38:01;;;;;;;4.40;4.00;;;25.70;85.20;;;26.38;48.23;98417.19;4974606;28;123629;-91
2022/06/29 08:40:42;;;;;;;5.30;4.03;;;25.80;84.90;;;26.35;47.90;98406.72;4965201;28;121892;-90
2022/06/29 08:43:15;;;;;;;5.13;4.40;;;25.80;84.30;;;26.34;47.50;98407.97;4987611;28;112995;-89
2022/06/29 08:45:46;;;;;;;4.30;3.90;;;25.80;83.90;;;26.34;47.65;98407.97;4982848;28;114035;-91
2022/06/29 08:48:15;;;;;;;5.00;3.70;;;25.80;83.60;;;26.36;47.29;98414.00;4977318;28;124109;-88
2022/06/29 08:50:47;;;;;;;7.53;3.80;;;25.80;83.70;;;26.41;47.17;98407.84;4976454;28;124146;-90
2022/06/29 08:53:16;;;;;;;4.53;4.10;;;25.80;83.70;;;26.50;47.46;98412.97;4980503;28;113726;-89
2022/06/29 08:55:47;;;;;;;4.37;3.97;;;25.90;83.70;;;26.54;46.86;98410.91;4985781;28;114446;-92
2022/06/29 08:58:23;;;;;;;5.47;3.47;;;25.90;83.20;;;26.58;47.20;98411.66;5003233;28;124165;-90
2022/06/29 09:00:51;;;;;;;3.73;3.27;;;26.00;83.30;;;26.63;47.05;98409.13;4990290;28;124504;-88
2022/06/29 09:03:22;;;;;;;3.47;3.17;;;26.00;83.20;;;26.66;47.06;98401.81;4981556;28;116344;-87
2022/06/29 09:05:52;;;;;;;3.60;3.30;;;26.10;83.20;;;26.70;46.98;98399.69;4975633;28;114180;-87
2022/06/29 09:08:19;;;;;;;3.87;3.30;;;26.10;83.00;;;26.72;46.95;98397.25;4979974;28;124076;-89
2022/06/29 09:10:45;;;;;;;4.13;3.67;;;26.10;82.80;;;26.75;46.69;98402.03;4970409;28;123646;-88
2022/06/29 09:13:20;;;;;;;6.80;3.50;;;26.20;82.50;;;26.79;46.41;98397.13;4974886;28;115473;-86
2022/06/29 09:15:47;;;;;;;11.37;5.00;;;26.20;82.50;;;26.85;46.72;98401.06;4973311;28;115090;-88
2022/06/29 09:18:32;;;;;;;4.97;4.00;;;26.30;82.40;;;26.92;46.54;98396.47;4986136;28;123239;-89
2022/06/29 09:21:03;;;;;;;5.23;4.03;;;26.30;82.10;;;26.94;46.26;98396.84;4977692;28;123490;-88
2022/06/29 09:23:31;;;;;;;6.17;4.40;;;26.30;81.70;;;26.97;45.70;98396.00;4973591;28;114106;-88
2022/06/29 09:25:59;;;;;;;5.20;4.57;;;26.40;81.00;;;26.94;45.99;98385.50;4971340;28;114019;-90
2022/06/29 09:28:33;;;;;;;5.27;4.60;;;26.40;80.80;;;26.95;45.68;98387.09;4983519;28;124527;-88
2022/06/29 09:31:00;;;;;;;4.27;3.87;;;26.40;81.00;;;27.01;45.71;98396.75;4972712;28;124195;-88
2022/06/29 09:33:30;;;;;;;3.57;3.27;;;26.40;81.10;;;27.07;45.74;98392.16;4978532;28;114341;-87
2022/06/29 09:36:14;;;;;;;4.77;4.30;;;26.50;80.80;;;27.08;45.52;98391.75;5006341;28;114224;-93
2022/06/29 09:38:41;;;;;;;4.33;3.93;;;26.50;80.50;;;27.11;45.77;98390.06;5000905;28;123583;-89
2022/06/29 09:41:14;;;;;;;4.83;3.60;;;26.50;80.70;;;27.16;45.42;98386.69;4981072;28;124441;-88
2022/06/29 09:44:05;;;;;;;3.90;3.60;;;26.60;80.70;;;27.21;45.47;98393.94;4978050;28;114518;-88
2022/06/29 09:46:32;;;;;;;4.00;3.60;;;26.60;80.60;;;27.21;45.79;98394.75;4934592;28;113145;-89
2022/06/29 09:48:59;;;;;;;3.40;3.10;;;26.70;80.40;;;27.24;45.42;98391.06;4944334;28;124580;-87
2022/06/29 09:51:31;;;;;;;3.40;3.10;;;26.70;80.40;;;27.28;45.20;98394.63;4930978;28;122411;-89
2022/06/29 09:54:10;;;;;;;3.10;2.90;;;26.70;80.20;;;27.31;45.41;98399.41;4916967;28;113755;-88
2022/06/29 09:56:48;;;;;;;3.23;2.93;;;26.80;80.20;;;27.33;45.75;98398.19;4930083;28;113987;-89
2022/06/29 10:02:34;;;;;;;3.37;3.07;;;26.50;79.90;;;27.30;45.37;98399.88;4909784;28;124171;-89
2022/06/29 10:02:39;;;;;;;3.00;2.80;;;26.80;80.10;;;27.26;45.55;98411.25;4916146;28;124484;-89
2022/06/29 10:05:20;;;;;;;3.13;2.83;;;26.80;80.10;;;27.18;45.46;98403.34;4924143;28;115601;-87
2022/06/29 10:07:53;;;;;;;3.97;3.30;;;26.80;80.00;;;27.11;45.27;98395.75;4912209;28;114991;-88
2022/06/29 10:10:26;;;;;;;3.23;2.90;;;26.70;79.80;;;27.03;45.36;98397.91;4909346;28;124715;-90
2022/06/29 10:13:40;;;;;;;3.83;3.30;;;26.60;79.70;;;26.97;45.77;98396.78;4926566;28;123935;-90
2022/06/29 10:16:33;;;;;;;3.33;2.90;;;26.60;79.80;;;26.89;45.81;98403.81;4938100;28;114806;-88
2022/06/29 10:19:15;;;;;;;3.20;2.83;;;26.50;79.70;;;26.86;45.59;98402.66;4935340;28;113420;-85
2022/06/29 10:21:42;;;;;;;4.00;2.80;;;26.50;79.90;;;26.85;46.06;98401.06;4925641;28;124173;-91
2022/06/29 10:24:08;;;;;;;3.00;2.70;;;26.40;79.70;;;26.86;45.46;98399.03;4962495;28;122932;-89
2022/06/29 10:26:35;;;;;;;3.93;2.97;;;26.40;79.80;;;26.85;45.86;98401.06;4970946;28;113905;-87